Aragominas, Brazil
Current Conditions -  °F | °C
As of 6:00 AM on Tuesday 21 Oct 2014 (Local Time) from SBMA Reporting Station
Broken Clouds Broken Clouds  
Wind Chill: 75°   Ceiling: 9000
Heat Index: 75°   Visibility: 6mi
Dew Point: 75°   Wind: 1mph
Humidity: 100%   Direction: 90°E
Pressure: 29.83"   Gusts: NA
Location:  7.16°S, 48.53°W
Report Text: SBMA 210900Z 09001KT 9999 FEW017 BKN090 24/24 Q1010
Loading
Personal Weather Stations






























Interactive Weather Map
Tropical Storm Tracking
New forecast layout! Learn more

10-Day Weather Forecast

Advertisements
Track Severe Weather on mobile